sensor_id;sensor_type;location;lat;lon;timestamp;pressure;altitude;pressure_sealevel;temperature;humidity
36692;BME280;22678;52.052;4.242;2023-04-10T00:02:12;102023.31;;;11.12;60.94
36692;BME280;22678;52.052;4.242;2023-04-10T00:04:37;102042.72;;;11.22;61.11
36692;BME280;22678;52.052;4.242;2023-04-10T00:07:03;102040.09;;;11.22;61.32
36692;BME280;22678;52.052;4.242;2023-04-10T00:09:29;102039.19;;;11.21;61.37
36692;BME280;22678;52.052;4.242;2023-04-10T00:11:54;102008.31;;;11.02;61.46
36692;BME280;22678;52.052;4.242;2023-04-10T00:14:20;102024.19;;;11.13;61.55
36692;BME280;22678;52.052;4.242;2023-04-10T00:16:48;102021.53;;;11.10;61.56
36692;BME280;22678;52.052;4.242;2023-04-10T00:19:13;102036.53;;;11.17;61.50
36692;BME280;22678;52.052;4.242;2023-04-10T00:21:38;102022.44;;;11.09;61.50
36692;BME280;22678;52.052;4.242;2023-04-10T00:24:04;102030.34;;;11.10;61.50
36692;BME280;22678;52.052;4.242;2023-04-10T00:26:29;102019.72;;;11.02;61.23
36692;BME280;22678;52.052;4.242;2023-04-10T00:28:55;102022.47;;;11.12;61.54
36692;BME280;22678;52.052;4.242;2023-04-10T00:31:20;102024.16;;;11.10;61.71
36692;BME280;22678;52.052;4.242;2023-04-10T00:33:45;102011.84;;;11.05;61.88
36692;BME280;22678;52.052;4.242;2023-04-10T00:36:11;102006.53;;;10.99;61.62
36692;BME280;22678;52.052;4.242;2023-04-10T00:38:36;101985.38;;;10.87;61.88
36692;BME280;22678;52.052;4.242;2023-04-10T00:41:02;101998.59;;;10.93;62.25
36692;BME280;22678;52.052;4.242;2023-04-10T00:43:27;102000.34;;;10.93;62.26
36692;BME280;22678;52.052;4.242;2023-04-10T00:45:52;101998.59;;;10.92;61.97
36692;BME280;22678;52.052;4.242;2023-04-10T00:48:18;101992.41;;;10.88;62.07
36692;BME280;22678;52.052;4.242;2023-04-10T00:50:45;101999.44;;;10.92;62.34
36692;BME280;22678;52.052;4.242;2023-04-10T00:53:10;101987.16;;;10.86;62.25
36692;BME280;22678;52.052;4.242;2023-04-10T00:55:37;101979.16;;;10.80;62.56
36692;BME280;22678;52.052;4.242;2023-04-10T00:58:02;101970.41;;;10.80;62.57
36692;BME280;22678;52.052;4.242;2023-04-10T01:00:28;101970.41;;;10.80;62.65
36692;BME280;22678;52.052;4.242;2023-04-10T01:02:53;101948.31;;;10.62;62.87
36692;BME280;22678;52.052;4.242;2023-04-10T01:05:20;101962.47;;;10.74;62.92
36692;BME280;22678;52.052;4.242;2023-04-10T01:08:08;101943.91;;;10.60;63.00
36692;BME280;22678;52.052;4.242;2023-04-10T01:10:49;101943.03;;;10.59;63.03
36692;BME280;22678;52.052;4.242;2023-04-10T01:13:26;101951.84;;;10.64;63.23
36692;BME280;22678;52.052;4.242;2023-04-10T01:16:04;101937.72;;;10.53;63.30
36692;BME280;22678;52.052;4.242;2023-04-10T01:21:10;101921.81;;;10.41;63.43
36692;BME280;22678;52.052;4.242;2023-04-10T01:24:00;101936.78;;;10.49;63.76
36692;BME280;22678;52.052;4.242;2023-04-10T01:29:07;101929.66;;;10.38;63.88
36692;BME280;22678;52.052;4.242;2023-04-10T01:31:41;101892.66;;;10.19;64.15
36692;BME280;22678;52.052;4.242;2023-04-10T01:34:18;101920.91;;;10.39;64.09
36692;BME280;22678;52.052;4.242;2023-04-10T01:37:21;101918.25;;;10.34;64.43
36692;BME280;22678;52.052;4.242;2023-04-10T01:40:02;101914.75;;;10.33;64.58
36692;BME280;22678;52.052;4.242;2023-04-10T01:42:34;101921.72;;;10.33;64.62
36692;BME280;22678;52.052;4.242;2023-04-10T01:45:05;101900.53;;;10.19;64.60
36692;BME280;22678;52.052;4.242;2023-04-10T01:47:33;101904.06;;;10.21;64.71
36692;BME280;22678;52.052;4.242;2023-04-10T01:49:59;101904.91;;;10.18;64.97
36692;BME280;22678;52.052;4.242;2023-04-10T01:52:26;101915.50;;;10.23;64.94
36692;BME280;22678;52.052;4.242;2023-04-10T01:54:52;101881.94;;;10.00;65.42
36692;BME280;22678;52.052;4.242;2023-04-10T01:57:18;101912.78;;;10.17;64.96
36692;BME280;22678;52.052;4.242;2023-04-10T01:59:45;101912.72;;;10.12;65.30
36692;BME280;22678;52.052;4.242;2023-04-10T02:02:10;101878.38;;;9.94;65.45
36692;BME280;22678;52.052;4.242;2023-04-10T02:04:36;101899.47;;;10.00;65.53
36692;BME280;22678;52.052;4.242;2023-04-10T02:07:12;101907.34;;;9.98;65.67
36692;BME280;22678;52.052;4.242;2023-04-10T02:09:57;101916.16;;;10.07;65.73
36692;BME280;22678;52.052;4.242;2023-04-10T02:12:35;101907.31;;;9.95;65.93
36692;BME280;22678;52.052;4.242;2023-04-10T02:15:04;101908.16;;;9.94;65.84
36692;BME280;22678;52.052;4.242;2023-04-10T02:17:32;101905.50;;;9.91;66.15
36692;BME280;22678;52.052;4.242;2023-04-10T02:19:59;101912.56;;;9.95;66.12
36692;BME280;22678;52.052;4.242;2023-04-10T02:22:25;101912.47;;;9.89;66.16
36692;BME280;22678;52.052;4.242;2023-04-10T02:24:52;101908.91;;;9.84;66.36
36692;BME280;22678;52.052;4.242;2023-04-10T02:27:32;101921.22;;;9.88;66.66
36692;BME280;22678;52.052;4.242;2023-04-10T02:29:59;101914.13;;;9.81;66.71
36692;BME280;22678;52.052;4.242;2023-04-10T02:32:24;101903.44;;;9.69;66.91
36692;BME280;22678;52.052;4.242;2023-04-10T02:34:50;101929.94;;;9.84;66.92
36692;BME280;22678;52.052;4.242;2023-04-10T02:37:15;101905.19;;;9.67;67.00
36692;BME280;22678;52.052;4.242;2023-04-10T02:39:41;101934.28;;;9.82;67.15
36692;BME280;22678;52.052;4.242;2023-04-10T02:42:06;101929.88;;;9.79;67.24
36692;BME280;22678;52.052;4.242;2023-04-10T02:44:32;101926.31;;;9.76;67.66
36692;BME280;22678;52.052;4.242;2023-04-10T02:46:57;101914.03;;;9.72;67.54
36692;BME280;22678;52.052;4.242;2023-04-10T02:49:22;101916.59;;;9.69;67.65
36692;BME280;22678;52.052;4.242;2023-04-10T02:51:47;101919.28;;;9.72;67.79
36692;BME280;22678;52.052;4.242;2023-04-10T02:54:13;101917.47;;;9.68;67.95
36692;BME280;22678;52.052;4.242;2023-04-10T02:56:38;101913.09;;;9.68;68.31
36692;BME280;22678;52.052;4.242;2023-04-10T02:59:03;101882.22;;;9.50;68.33
36692;BME280;22678;52.052;4.242;2023-04-10T03:01:29;101914.81;;;9.64;68.48
36692;BME280;22678;52.052;4.242;2023-04-10T03:03:54;101889.28;;;9.54;68.65
36692;BME280;22678;52.052;4.242;2023-04-10T03:06:20;101881.34;;;9.50;68.55
36692;BME280;22678;52.052;4.242;2023-04-10T03:08:46;101887.53;;;9.53;68.97
36692;BME280;22678;52.052;4.242;2023-04-10T03:11:11;101893.56;;;9.47;68.76
36692;BME280;22678;52.052;4.242;2023-04-10T03:13:36;101895.34;;;9.50;69.19
36692;BME280;22678;52.052;4.242;2023-04-10T03:16:02;101889.19;;;9.48;69.31
36692;BME280;22678;52.052;4.242;2023-04-10T03:18:27;101880.34;;;9.40;69.25
36692;BME280;22678;52.052;4.242;2023-04-10T03:20:52;101876.91;;;9.44;69.61
36692;BME280;22678;52.052;4.242;2023-04-10T03:23:18;101868.97;;;9.39;69.10
36692;BME280;22678;52.052;4.242;2023-04-10T03:25:43;101874.25;;;9.42;69.81
36692;BME280;22678;52.052;4.242;2023-04-10T03:28:08;101852.28;;;9.36;70.15
36692;BME280;22678;52.052;4.242;2023-04-10T03:30:34;101858.47;;;9.39;70.43
36692;BME280;22678;52.052;4.242;2023-04-10T03:33:01;101848.72;;;9.31;70.31
36692;BME280;22678;52.052;4.242;2023-04-10T03:35:26;101874.31;;;9.45;70.40
36692;BME280;22678;52.052;4.242;2023-04-10T03:37:51;101865.50;;;9.43;70.57
36692;BME280;22678;52.052;4.242;2023-04-10T03:40:17;101841.72;;;9.29;70.61
36692;BME280;22678;52.052;4.242;2023-04-10T03:42:42;101861.03;;;9.38;70.74
36692;BME280;22678;52.052;4.242;2023-04-10T03:45:08;101858.41;;;9.38;70.86
36692;BME280;22678;52.052;4.242;2023-04-10T03:47:33;101852.28;;;9.36;71.03
36692;BME280;22678;52.052;4.242;2023-04-10T03:49:59;101858.41;;;9.38;71.27
36692;BME280;22678;52.052;4.242;2023-04-10T03:52:25;101856.66;;;9.35;70.85
36692;BME280;22678;52.052;4.242;2023-04-10T03:54:55;101842.56;;;9.28;71.20
36692;BME280;22678;52.052;4.242;2023-04-10T03:57:20;101826.69;;;9.18;70.96
36692;BME280;22678;52.052;4.242;2023-04-10T03:59:46;101836.38;;;9.23;71.44
36692;BME280;22678;52.052;4.242;2023-04-10T04:02:11;101852.28;;;9.36;71.46
36692;BME280;22678;52.052;4.242;2023-04-10T04:04:37;101832.88;;;9.24;71.32
36692;BME280;22678;52.052;4.242;2023-04-10T04:07:03;101824.06;;;9.19;71.45
36692;BME280;22678;52.052;4.242;2023-04-10T04:09:28;101843.47;;;9.31;71.55
36692;BME280;22678;52.052;4.242;2023-04-10T04:11:53;101852.25;;;9.33;71.24
36692;BME280;22678;52.052;4.242;2023-04-10T04:14:19;101846.16;;;9.35;71.42
36692;BME280;22678;52.052;4.242;2023-04-10T04:16:45;101840.00;;;9.35;71.43
36692;BME280;22678;52.052;4.242;2023-04-10T04:19:10;101829.50;;;9.35;71.31
36692;BME280;22678;52.052;4.242;2023-04-10T04:21:35;101814.53;;;9.27;71.38
36692;BME280;22678;52.052;4.242;2023-04-10T04:24:01;101791.69;;;9.17;71.31
36692;BME280;22678;52.052;4.242;2023-04-10T04:26:26;101808.47;;;9.32;71.13
36692;BME280;22678;52.052;4.242;2023-04-10T04:28:51;101820.78;;;9.36;71.46
36692;BME280;22678;52.052;4.242;2023-04-10T04:31:17;101805.81;;;9.28;71.04
36692;BME280;22678;52.052;4.242;2023-04-10T04:33:42;101811.16;;;9.36;71.09
36692;BME280;22678;52.052;4.242;2023-04-10T04:36:07;101808.47;;;9.32;71.12
36692;BME280;22678;52.052;4.242;2023-04-10T04:38:33;101812.00;;;9.34;70.97
36692;BME280;22678;52.052;4.242;2023-04-10T04:40:58;101772.41;;;9.15;70.95
36692;BME280;22678;52.052;4.242;2023-04-10T04:43:23;101803.25;;;9.35;70.99
36692;BME280;22678;52.052;4.242;2023-04-10T04:45:49;101790.03;;;9.27;71.04
36692;BME280;22678;52.052;4.242;2023-04-10T04:48:14;101804.19;;;9.37;70.75
36692;BME280;22678;52.052;4.242;2023-04-10T04:50:39;101796.31;;;9.37;70.80
36692;BME280;22678;52.052;4.242;2023-04-10T04:53:06;101799.88;;;9.45;70.68
36692;BME280;22678;52.052;4.242;2023-04-10T04:55:31;101806.06;;;9.49;70.65
36692;BME280;22678;52.052;4.242;2023-04-10T04:57:56;101792.88;;;9.44;70.26
36692;BME280;22678;52.052;4.242;2023-04-10T05:00:22;101777.09;;;9.41;70.32
36692;BME280;22678;52.052;4.242;2023-04-10T05:02:47;101800.03;;;9.57;70.08
36692;BME280;22678;52.052;4.242;2023-04-10T05:05:12;101787.75;;;9.56;69.81
36692;BME280;22678;52.052;4.242;2023-04-10T05:07:38;101793.09;;;9.62;69.61
36692;BME280;22678;52.052;4.242;2023-04-10T05:10:04;101784.31;;;9.60;69.17
36692;BME280;22678;52.052;4.242;2023-04-10T05:12:29;101774.66;;;9.59;69.11
36692;BME280;22678;52.052;4.242;2023-04-10T05:14:55;101791.44;;;9.71;68.76
36692;BME280;22678;52.052;4.242;2023-04-10T05:17:20;101787.88;;;9.67;68.53
36692;BME280;22678;52.052;4.242;2023-04-10T05:19:45;101791.47;;;9.74;68.38
36692;BME280;22678;52.052;4.242;2023-04-10T05:22:11;101783.56;;;9.71;67.78
36692;BME280;22678;52.052;4.242;2023-04-10T05:24:36;101772.09;;;9.65;68.00
36692;BME280;22678;52.052;4.242;2023-04-10T05:27:01;101785.38;;;9.79;67.80
36692;BME280;22678;52.052;4.242;2023-04-10T05:29:27;101769.53;;;9.70;67.75
36692;BME280;22678;52.052;4.242;2023-04-10T05:31:52;101761.59;;;9.65;67.61
36692;BME280;22678;52.052;4.242;2023-04-10T05:34:17;101778.31;;;9.72;67.75
36692;BME280;22678;52.052;4.242;2023-04-10T05:36:43;101782.75;;;9.78;67.63
36692;BME280;22678;52.052;4.242;2023-04-10T05:39:08;101782.75;;;9.79;67.69
36692;BME280;22678;52.052;4.242;2023-04-10T05:41:34;101777.50;;;9.78;67.54
36692;BME280;22678;52.052;4.242;2023-04-10T05:43:59;101768.66;;;9.73;67.52
36692;BME280;22678;52.052;4.242;2023-04-10T05:46:24;101758.09;;;9.67;67.50
36692;BME280;22678;52.052;4.242;2023-04-10T05:48:50;101733.50;;;9.57;67.42
36692;BME280;22678;52.052;4.242;2023-04-10T05:51:15;101761.69;;;9.72;67.37
36692;BME280;22678;52.052;4.242;2023-04-10T05:53:40;101769.63;;;9.79;67.33
36692;BME280;22678;52.052;4.242;2023-04-10T05:56:06;101747.63;;;9.68;67.58
36692;BME280;22678;52.052;4.242;2023-04-10T05:58:32;101764.38;;;9.79;67.10
36692;BME280;22678;52.052;4.242;2023-04-10T06:00:57;101756.44;;;9.73;67.28
36692;BME280;22678;52.052;4.242;2023-04-10T06:03:22;101762.63;;;9.81;67.13
36692;BME280;22678;52.052;4.242;2023-04-10T06:05:48;101718.66;;;9.59;67.20
36692;BME280;22678;52.052;4.242;2023-04-10T06:08:13;101724.84;;;9.69;67.14
36692;BME280;22678;52.052;4.242;2023-04-10T06:10:39;101734.56;;;9.77;67.01
36692;BME280;22678;52.052;4.242;2023-04-10T06:13:05;101742.53;;;9.85;66.79
36692;BME280;22678;52.052;4.242;2023-04-10T06:15:30;101729.38;;;9.82;66.84
36692;BME280;22678;52.052;4.242;2023-04-10T06:17:55;101717.97;;;9.83;66.64
36692;BME280;22678;52.052;4.242;2023-04-10T06:20:21;101725.91;;;9.89;66.16
36692;BME280;22678;52.052;4.242;2023-04-10T06:22:46;101723.28;;;9.88;66.40
36692;BME280;22678;52.052;4.242;2023-04-10T06:25:12;101714.53;;;9.90;66.02
36692;BME280;22678;52.052;4.242;2023-04-10T06:27:37;101689.97;;;9.82;66.09
36692;BME280;22678;52.052;4.242;2023-04-10T06:30:03;101719.94;;;10.06;65.96
36692;BME280;22678;52.052;4.242;2023-04-10T06:32:29;101718.19;;;10.08;65.78
36692;BME280;22678;52.052;4.242;2023-04-10T06:34:55;101695.34;;;9.97;65.83
36692;BME280;22678;52.052;4.242;2023-04-10T06:37:27;101721.78;;;10.16;65.45
36692;BME280;22678;52.052;4.242;2023-04-10T06:40:04;101710.38;;;10.17;65.49
36692;BME280;22678;52.052;4.242;2023-04-10T06:42:30;101704.22;;;10.12;65.16
36692;BME280;22678;52.052;4.242;2023-04-10T06:44:55;101679.63;;;10.04;65.02
36692;BME280;22678;52.052;4.242;2023-04-10T06:47:20;101700.78;;;10.22;65.18
36692;BME280;22678;52.052;4.242;2023-04-10T06:49:46;101684.09;;;10.17;64.85
36692;BME280;22678;52.052;4.242;2023-04-10T06:52:11;101602.34;;;9.74;64.97
36692;BME280;22678;52.052;4.242;2023-04-10T06:54:36;101697.41;;;10.34;64.79
36692;BME280;22678;52.052;4.242;2023-04-10T06:57:02;101679.84;;;10.34;64.86
36692;BME280;22678;52.052;4.242;2023-04-10T06:59:27;101673.69;;;10.29;64.77
36692;BME280;22678;52.052;4.242;2023-04-10T07:01:53;101589.22;;;9.78;64.37
36692;BME280;22678;52.052;4.242;2023-04-10T07:04:18;101634.97;;;10.08;64.43
36692;BME280;22678;52.052;4.242;2023-04-10T07:06:43;101692.19;;;10.42;64.46
36692;BME280;22678;52.052;4.242;2023-04-10T07:09:09;101679.88;;;10.38;64.27
36692;BME280;22678;52.052;4.242;2023-04-10T07:11:34;101662.38;;;10.37;64.16
36692;BME280;22678;52.052;4.242;2023-04-10T07:13:59;101678.22;;;10.55;64.16
36692;BME280;22678;52.052;4.242;2023-04-10T07:16:25;101650.13;;;10.46;63.93
36692;BME280;22678;52.052;4.242;2023-04-10T07:18:51;101659.84;;;10.61;63.69
36692;BME280;22678;52.052;4.242;2023-04-10T07:21:16;101670.41;;;10.66;63.35
36692;BME280;22678;52.052;4.242;2023-04-10T07:23:42;101637.91;;;10.56;63.19
36692;BME280;22678;52.052;4.242;2023-04-10T07:26:07;101646.75;;;10.71;62.90
36692;BME280;22678;52.052;4.242;2023-04-10T07:28:32;101646.78;;;10.77;62.83
36692;BME280;22678;52.052;4.242;2023-04-10T07:30:58;101654.69;;;10.83;62.24
36692;BME280;22678;52.052;4.242;2023-04-10T07:33:23;101626.59;;;10.77;62.08
36692;BME280;22678;52.052;4.242;2023-04-10T07:35:48;101636.25;;;10.83;61.90
36692;BME280;22678;52.052;4.242;2023-04-10T07:38:14;101639.81;;;10.86;61.78
36692;BME280;22678;52.052;4.242;2023-04-10T07:40:39;101634.53;;;10.91;61.71
36692;BME280;22678;52.052;4.242;2023-04-10T07:43:04;101633.69;;;10.98;61.69
36692;BME280;22678;52.052;4.242;2023-04-10T07:45:30;101608.19;;;10.82;61.55
36692;BME280;22678;52.052;4.242;2023-04-10T07:47:55;101623.13;;;10.95;61.44
36692;BME280;22678;52.052;4.242;2023-04-10T07:50:22;101627.53;;;11.02;61.40
36692;BME280;22678;52.052;4.242;2023-04-10T07:52:48;101623.16;;;10.97;61.08
36692;BME280;22678;52.052;4.242;2023-04-10T07:55:13;101610.88;;;11.00;61.12
36692;BME280;22678;52.052;4.242;2023-04-10T07:57:39;101581.00;;;10.87;61.13
36692;BME280;22678;52.052;4.242;2023-04-10T08:00:05;101581.91;;;10.94;61.24
36692;BME280;22678;52.052;4.242;2023-04-10T08:02:31;101586.31;;;10.98;61.25
36692;BME280;22678;52.052;4.242;2023-04-10T08:04:56;101588.94;;;11.01;61.18
36692;BME280;22678;52.052;4.242;2023-04-10T08:07:21;101585.44;;;11.02;61.20
36692;BME280;22678;52.052;4.242;2023-04-10T08:09:47;101597.72;;;11.16;61.08
36692;BME280;22678;52.052;4.242;2023-04-10T08:12:12;101588.97;;;11.20;60.41
36692;BME280;22678;52.052;4.242;2023-04-10T08:14:37;101580.19;;;11.24;60.87
36692;BME280;22678;52.052;4.242;2023-04-10T08:17:03;101581.97;;;11.34;60.61
36692;BME280;22678;52.052;4.242;2023-04-10T08:19:28;101564.41;;;11.33;60.37
36692;BME280;22678;52.052;4.242;2023-04-10T08:21:53;101558.25;;;11.36;60.50
36692;BME280;22678;52.052;4.242;2023-04-10T08:24:19;101574.94;;;11.52;60.46
36692;BME280;22678;52.052;4.242;2023-04-10T08:26:47;101568.81;;;11.56;59.99
36692;BME280;22678;52.052;4.242;2023-04-10T08:29:12;101577.53;;;11.67;60.09
36692;BME280;22678;52.052;4.242;2023-04-10T08:31:38;101571.41;;;11.74;60.13
36692;BME280;22678;52.052;4.242;2023-04-10T08:34:03;101548.59;;;11.70;59.82
36692;BME280;22678;52.052;4.242;2023-04-10T08:36:28;101559.94;;;11.91;59.91
36692;BME280;22678;52.052;4.242;2023-04-10T08:38:55;101556.44;;;11.98;59.63
36692;BME280;22678;52.052;4.242;2023-04-10T08:41:21;101544.13;;;12.05;59.44
36692;BME280;22678;52.052;4.242;2023-04-10T08:43:46;101544.13;;;12.08;58.95
36692;BME280;22678;52.052;4.242;2023-04-10T08:46:14;101502.00;;;11.96;58.55
36692;BME280;22678;52.052;4.242;2023-04-10T08:48:46;101537.06;;;12.19;58.76
36692;BME280;22678;52.052;4.242;2023-04-10T08:51:20;101531.81;;;12.18;58.92
36692;BME280;22678;52.052;4.242;2023-04-10T08:53:50;101515.06;;;12.19;58.61
36692;BME280;22678;52.052;4.242;2023-04-10T08:56:17;101518.59;;;12.24;58.48
36692;BME280;22678;52.052;4.242;2023-04-10T08:58:43;101520.34;;;12.20;58.62
36692;BME280;22678;52.052;4.242;2023-04-10T09:01:09;101524.69;;;12.29;58.10
36692;BME280;22678;52.052;4.242;2023-04-10T09:03:36;101488.72;;;12.17;57.95
36692;BME280;22678;52.052;4.242;2023-04-10T09:06:02;101513.28;;;12.30;58.34
36692;BME280;22678;52.052;4.242;2023-04-10T09:08:28;101506.25;;;12.29;58.06
36692;BME280;22678;52.052;4.242;2023-04-10T09:10:54;101486.06;;;12.22;58.13
36692;BME280;22678;52.052;4.242;2023-04-10T09:13:40;101486.06;;;12.17;57.92
36692;BME280;22678;52.052;4.242;2023-04-10T09:16:07;101489.53;;;12.32;57.84
36692;BME280;22678;52.052;4.242;2023-04-10T09:18:44;101463.28;;;12.13;57.78
36692;BME280;22678;52.052;4.242;2023-04-10T09:21:12;101408.00;;;11.85;57.69
36692;BME280;22678;52.052;4.242;2023-04-10T09:23:37;101471.13;;;12.21;57.53
36692;BME280;22678;52.052;4.242;2023-04-10T09:26:21;101486.88;;;12.36;57.50
36692;BME280;22678;52.052;4.242;2023-04-10T09:29:02;101493.88;;;12.40;57.48
36692;BME280;22678;52.052;4.242;2023-04-10T09:31:32;101487.69;;;12.48;57.71
36692;BME280;22678;52.052;4.242;2023-04-10T09:34:20;101478.84;;;12.55;57.69
36692;BME280;22678;52.052;4.242;2023-04-10T09:36:54;101474.41;;;12.63;57.73
36692;BME280;22678;52.052;4.242;2023-04-10T09:39:20;101460.31;;;12.66;57.58
36692;BME280;22678;52.052;4.242;2023-04-10T09:41:47;101473.34;;;12.89;57.40
36692;BME280;22678;52.052;4.242;2023-04-10T09:44:15;101463.59;;;12.94;57.14
36692;BME280;22678;52.052;4.242;2023-04-10T09:46:41;101450.34;;;13.03;56.83
36692;BME280;22678;52.052;4.242;2023-04-10T09:49:06;101448.50;;;13.13;56.89
36692;BME280;22678;52.052;4.242;2023-04-10T09:51:35;101449.28;;;13.23;56.58
36692;BME280;22678;52.052;4.242;2023-04-10T09:54:02;101454.47;;;13.35;56.29
36692;BME280;22678;52.052;4.242;2023-04-10T09:56:28;101445.59;;;13.42;56.08
36692;BME280;22678;52.052;4.242;2023-04-10T09:58:59;101439.31;;;13.54;55.74
36692;BME280;22678;52.052;4.242;2023-04-10T10:01:26;101398.00;;;13.45;55.47
36692;BME280;22678;52.052;4.242;2023-04-10T10:03:53;101426.84;;;13.67;54.83
36692;BME280;22678;52.052;4.242;2023-04-10T10:06:19;101431.94;;;13.84;55.02
36692;BME280;22678;52.052;4.242;2023-04-10T10:08:45;101411.59;;;13.88;54.87
36692;BME280;22678;52.052;4.242;2023-04-10T10:11:12;101421.75;;;14.20;54.48
36692;BME280;22678;52.052;4.242;2023-04-10T10:13:50;101405.56;;;14.43;54.08
36692;BME280;22678;52.052;4.242;2023-04-10T10:16:34;101408.88;;;14.58;53.51
36692;BME280;22678;52.052;4.242;2023-04-10T10:19:07;101393.81;;;14.60;53.06
36692;BME280;22678;52.052;4.242;2023-04-10T10:21:34;101398.16;;;14.67;53.13
36692;BME280;22678;52.052;4.242;2023-04-10T10:24:01;101369.97;;;14.63;53.12
36692;BME280;22678;52.052;4.242;2023-04-10T10:26:28;101369.91;;;14.67;53.30
36692;BME280;22678;52.052;4.242;2023-04-10T10:28:55;101374.22;;;14.73;53.19
36692;BME280;22678;52.052;4.242;2023-04-10T10:31:20;101347.91;;;14.64;53.11
36692;BME280;22678;52.052;4.242;2023-04-10T10:33:50;101347.72;;;14.75;53.26
36692;BME280;22678;52.052;4.242;2023-04-10T10:36:16;101358.88;;;14.92;53.18
36692;BME280;22678;52.052;4.242;2023-04-10T10:38:55;101343.09;;;14.87;53.18
36692;BME280;22678;52.052;4.242;2023-04-10T10:41:40;101351.53;;;15.08;52.81
36692;BME280;22678;52.052;4.242;2023-04-10T10:44:12;101350.53;;;15.15;52.45
36692;BME280;22678;52.052;4.242;2023-04-10T10:46:46;101347.75;;;15.21;52.39
36692;BME280;22678;52.052;4.242;2023-04-10T10:49:13;101334.44;;;15.24;52.38
36692;BME280;22678;52.052;4.242;2023-04-10T10:51:43;101336.03;;;15.33;52.08
36692;BME280;22678;52.052;4.242;2023-04-10T10:54:33;101343.81;;;15.41;51.78
36692;BME280;22678;52.052;4.242;2023-04-10T10:56:59;101318.94;;;15.48;52.08
36692;BME280;22678;52.052;4.242;2023-04-10T11:02:16;101295.66;;;15.63;51.63
36692;BME280;22678;52.052;4.242;2023-04-10T11:04:47;101318.31;;;15.79;51.64
36692;BME280;22678;52.052;4.242;2023-04-10T11:07:14;101305.19;;;15.71;50.75
36692;BME280;22678;52.052;4.242;2023-04-10T11:09:53;101293.16;;;15.56;51.11
36692;BME280;22678;52.052;4.242;2023-04-10T11:12:22;101292.50;;;15.45;51.13
36692;BME280;22678;52.052;4.242;2023-04-10T11:14:59;101292.63;;;15.39;51.45
36692;BME280;22678;52.052;4.242;2023-04-10T11:17:50;101287.47;;;15.33;51.74
36692;BME280;22678;52.052;4.242;2023-04-10T11:20:20;101271.94;;;15.14;51.93
36692;BME280;22678;52.052;4.242;2023-04-10T11:23:11;101277.22;;;15.16;52.43
36692;BME280;22678;52.052;4.242;2023-04-10T11:25:50;101273.75;;;15.12;52.61
36692;BME280;22678;52.052;4.242;2023-04-10T11:31:14;101254.66;;;14.96;52.98
36692;BME280;22678;52.052;4.242;2023-04-10T11:33:40;101256.47;;;14.93;53.27
36692;BME280;22678;52.052;4.242;2023-04-10T11:36:06;101243.28;;;14.89;53.22
36692;BME280;22678;52.052;4.242;2023-04-10T11:38:32;101232.84;;;14.83;53.42
36692;BME280;22678;52.052;4.242;2023-04-10T11:41:02;101222.34;;;14.79;53.56
36692;BME280;22678;52.052;4.242;2023-04-10T11:43:29;101249.56;;;14.85;53.57
36692;BME280;22678;52.052;4.242;2023-04-10T11:46:07;101231.09;;;14.81;53.61
36692;BME280;22678;52.052;4.242;2023-04-10T11:48:33;101223.13;;;14.82;53.53
36692;BME280;22678;52.052;4.242;2023-04-10T11:51:04;101224.06;;;14.81;53.75
36692;BME280;22678;52.052;4.242;2023-04-10T11:53:30;101241.59;;;14.87;53.76
36692;BME280;22678;52.052;4.242;2023-04-10T11:55:55;101227.44;;;14.88;53.79
36692;BME280;22678;52.052;4.242;2023-04-10T11:58:25;101254.81;;;14.88;54.07
36692;BME280;22678;52.052;4.242;2023-04-10T12:00:59;101217.00;;;14.80;54.61
36692;BME280;22678;52.052;4.242;2023-04-10T12:03:35;101240.66;;;14.89;55.63
36692;BME280;22678;52.052;4.242;2023-04-10T12:06:02;101232.97;;;14.77;56.60
36692;BME280;22678;52.052;4.242;2023-04-10T12:08:35;101223.38;;;14.70;57.56
36692;BME280;22678;52.052;4.242;2023-04-10T12:11:01;101234.84;;;14.70;58.46
36692;BME280;22678;52.052;4.242;2023-04-10T12:13:28;101228.81;;;14.64;59.23
36692;BME280;22678;52.052;4.242;2023-04-10T12:15:56;101234.28;;;14.51;60.27
36692;BME280;22678;52.052;4.242;2023-04-10T12:18:23;101222.13;;;14.40;60.93
36692;BME280;22678;52.052;4.242;2023-04-10T12:20:48;101197.78;;;14.20;62.27
36692;BME280;22678;52.052;4.242;2023-04-10T12:23:16;101211.09;;;14.16;62.80
36692;BME280;22678;52.052;4.242;2023-04-10T12:25:42;101201.50;;;14.10;63.40
36692;BME280;22678;52.052;4.242;2023-04-10T12:28:07;101206.94;;;14.01;64.13
36692;BME280;22678;52.052;4.242;2023-04-10T12:30:32;101194.00;;;13.84;65.06
36692;BME280;22678;52.052;4.242;2023-04-10T12:32:58;101205.44;;;13.84;65.60
36692;BME280;22678;52.052;4.242;2023-04-10T12:35:40;101176.59;;;13.69;66.85
36692;BME280;22678;52.052;4.242;2023-04-10T12:38:08;101186.38;;;13.64;67.95
36692;BME280;22678;52.052;4.242;2023-04-10T12:40:33;101170.75;;;13.52;68.38
36692;BME280;22678;52.052;4.242;2023-04-10T12:42:58;101178.59;;;13.56;68.74
36692;BME280;22678;52.052;4.242;2023-04-10T12:45:43;101172.38;;;13.57;69.66
36692;BME280;22678;52.052;4.242;2023-04-10T12:48:08;101137.38;;;13.44;69.84
36692;BME280;22678;52.052;4.242;2023-04-10T12:50:45;101132.16;;;13.41;70.51
36692;BME280;22678;52.052;4.242;2023-04-10T12:53:11;101137.38;;;13.44;70.78
36692;BME280;22678;52.052;4.242;2023-04-10T12:55:38;101143.50;;;13.46;71.27
36692;BME280;22678;52.052;4.242;2023-04-10T12:58:17;101137.44;;;13.38;71.97
36692;BME280;22678;52.052;4.242;2023-04-10T13:00:44;101139.31;;;13.30;72.42
36692;BME280;22678;52.052;4.242;2023-04-10T13:03:10;101151.69;;;13.25;72.45
36692;BME280;22678;52.052;4.242;2023-04-10T13:05:36;101150.00;;;13.22;73.02
36692;BME280;22678;52.052;4.242;2023-04-10T13:08:01;101149.16;;;13.19;73.68